AIQ251 VTBD-VYYY
Flight info
| Callsign | AIQ251 |
|---|---|
| Flight time | 1h 0m |
| Altitude | 32000 |
| Route | NUNLI3A NUNLI L507 LUDVI ENSIT1A |
| Aircraft | A320/M-SDE3FGHIRWY/LB1 |
Departure
| Time | 2026-05-04 06:53 |
|---|---|
| Airport | Don Mueang International Airport (VTBD) |
Arrival
| Time | 2026-05-04 07:53 |
|---|---|
| Airport | Yangon International Airport (VYYY) |
| Time | Latitude | Longitude | Altitude | Speed | Heading |
|---|---|---|---|---|---|
| 2026-05-04 06:40 | 13.92009 | 100.60453 | 17 ft | 0 kts | 28° |
| 2026-05-04 06:42 | 13.91998 | 100.60446 | 45 ft | 3 kts | 28° |
| 2026-05-04 06:44 | 13.91904 | 100.60486 | 18 ft | 2 kts | 298° |
| 2026-05-04 06:44 | 13.91899 | 100.60496 | 18 ft | 3 kts | 298° |
| 2026-05-04 06:44 | 13.91889 | 100.60515 | 18 ft | 3 kts | 299° |
| 2026-05-04 06:45 | 13.91879 | 100.60531 | 19 ft | 3 kts | 324° |
| 2026-05-04 06:45 | 13.91869 | 100.60537 | 18 ft | 2 kts | 26° |
| 2026-05-04 06:45 | 13.91858 | 100.60531 | 19 ft | 3 kts | 29° |
| 2026-05-04 06:45 | 13.91841 | 100.60521 | 19 ft | 3 kts | 28° |
| 2026-05-04 06:46 | 13.91827 | 100.60513 | 20 ft | 1 kts | 28° |
| 2026-05-04 06:46 | 13.91826 | 100.60513 | 19 ft | 0 kts | 28° |
| 2026-05-04 06:48 | 13.91864 | 100.60616 | 19 ft | 6 kts | 48° |
| 2026-05-04 06:48 | 13.91912 | 100.60646 | 17 ft | 12 kts | 28° |
| 2026-05-04 06:49 | 13.91983 | 100.60686 | 18 ft | 11 kts | 29° |
| 2026-05-04 06:50 | 13.92646 | 100.61062 | 18 ft | 9 kts | 51° |
| 2026-05-04 06:51 | 13.92639 | 100.61114 | 17 ft | 7 kts | 118° |
| 2026-05-04 06:51 | 13.92615 | 100.61159 | 16 ft | 7 kts | 119° |
| 2026-05-04 06:51 | 13.92591 | 100.61199 | 16 ft | 6 kts | 132° |
| 2026-05-04 06:51 | 13.92561 | 100.61200 | 16 ft | 3 kts | 195° |
| 2026-05-04 06:52 | 13.92545 | 100.61191 | 16 ft | 5 kts | 212° |
| 2026-05-04 06:52 | 13.92353 | 100.61082 | 17 ft | 67 kts | 208° |
| 2026-05-04 06:52 | 13.91759 | 100.60748 | 16 ft | 125 kts | 208° |
| 2026-05-04 06:52 | 13.90848 | 100.60252 | 85 ft | 164 kts | 206° |
| 2026-05-04 06:53 | 13.89838 | 100.59703 | 699 ft | 165 kts | 208° |
| 2026-05-04 06:53 | 13.88829 | 100.59137 | 1297 ft | 167 kts | 208° |
| 2026-05-04 06:53 | 13.87764 | 100.58513 | 1626 ft | 187 kts | 217° |
| 2026-05-04 06:53 | 13.87077 | 100.57377 | 1836 ft | 212 kts | 262° |
| 2026-05-04 06:54 | 13.87312 | 100.55797 | 2161 ft | 237 kts | 289° |
| 2026-05-04 06:54 | 13.87979 | 100.54150 | 2532 ft | 262 kts | 293° |
| 2026-05-04 06:54 | 13.88783 | 100.52415 | 3167 ft | 272 kts | 295° |
| 2026-05-04 06:54 | 13.89620 | 100.50639 | 3972 ft | 276 kts | 295° |
| 2026-05-04 06:55 | 13.90452 | 100.48834 | 4774 ft | 281 kts | 295° |
| 2026-05-04 06:55 | 13.91275 | 100.46985 | 5534 ft | 287 kts | 295° |
| 2026-05-04 06:55 | 13.92084 | 100.45120 | 6278 ft | 291 kts | 294° |
| 2026-05-04 06:55 | 13.92902 | 100.43202 | 7022 ft | 295 kts | 294° |
| 2026-05-04 06:56 | 13.93723 | 100.41256 | 7748 ft | 299 kts | 293° |
| 2026-05-04 06:57 | 14.03766 | 100.32170 | 11891 ft | 343 kts | 353° |
| 2026-05-04 06:58 | 14.06184 | 100.31901 | 12308 ft | 353 kts | 354° |
| 2026-05-04 06:58 | 14.08648 | 100.31630 | 12909 ft | 357 kts | 353° |
| 2026-05-04 06:58 | 14.11096 | 100.31358 | 13514 ft | 360 kts | 353° |
| 2026-05-04 06:58 | 14.13604 | 100.31072 | 14068 ft | 364 kts | 353° |
| 2026-05-04 06:59 | 14.16130 | 100.30776 | 14609 ft | 366 kts | 353° |
| 2026-05-04 06:59 | 14.18671 | 100.30475 | 15147 ft | 369 kts | 353° |
| 2026-05-04 06:59 | 14.21225 | 100.30174 | 15699 ft | 371 kts | 353° |
| 2026-05-04 06:59 | 14.23803 | 100.29871 | 16230 ft | 374 kts | 353° |
| 2026-05-04 07:01 | 14.42371 | 100.27674 | 19550 ft | 393 kts | 348° |
| 2026-05-04 07:01 | 14.44940 | 100.26825 | 19949 ft | 393 kts | 332° |
| 2026-05-04 07:02 | 14.47181 | 100.25225 | 20348 ft | 393 kts | 315° |
| 2026-05-04 07:02 | 14.48877 | 100.23015 | 20748 ft | 393 kts | 298° |
| 2026-05-04 07:02 | 14.50049 | 100.20457 | 21139 ft | 395 kts | 293° |
| 2026-05-04 07:02 | 14.51178 | 100.17862 | 21575 ft | 397 kts | 293° |
| 2026-05-04 07:03 | 14.52303 | 100.15274 | 21966 ft | 400 kts | 293° |
| 2026-05-04 07:03 | 14.53446 | 100.12650 | 22378 ft | 402 kts | 293° |
| 2026-05-04 07:03 | 14.54599 | 100.10007 | 22783 ft | 404 kts | 293° |
| 2026-05-04 07:03 | 14.55762 | 100.07347 | 23157 ft | 407 kts | 293° |
| 2026-05-04 07:04 | 14.56935 | 100.04668 | 23516 ft | 409 kts | 293° |
| 2026-05-04 07:04 | 14.58110 | 100.01985 | 23832 ft | 412 kts | 293° |
| 2026-05-04 07:04 | 14.59279 | 99.99313 | 24144 ft | 414 kts | 293° |
| 2026-05-04 07:04 | 14.60466 | 99.96601 | 24470 ft | 415 kts | 293° |
| 2026-05-04 07:05 | 14.61661 | 99.93870 | 24793 ft | 417 kts | 293° |
| 2026-05-04 07:05 | 14.62856 | 99.91132 | 25115 ft | 419 kts | 293° |
| 2026-05-04 07:05 | 14.64056 | 99.88384 | 25433 ft | 421 kts | 293° |
| 2026-05-04 07:05 | 14.65262 | 99.85620 | 25752 ft | 422 kts | 293° |
| 2026-05-04 07:06 | 14.67669 | 99.80091 | 26362 ft | 426 kts | 292° |
| 2026-05-04 07:06 | 14.68893 | 99.77279 | 26661 ft | 428 kts | 292° |
| 2026-05-04 07:06 | 14.70118 | 99.74466 | 26951 ft | 430 kts | 292° |
| 2026-05-04 07:07 | 14.71344 | 99.71646 | 27246 ft | 431 kts | 292° |
| 2026-05-04 07:08 | 14.80063 | 99.51577 | 29236 ft | 444 kts | 292° |
| 2026-05-04 07:09 | 14.81314 | 99.48700 | 29503 ft | 445 kts | 292° |
| 2026-05-04 07:09 | 14.82587 | 99.45764 | 29780 ft | 447 kts | 292° |
| 2026-05-04 07:09 | 14.83862 | 99.42825 | 30023 ft | 448 kts | 292° |
| 2026-05-04 07:09 | 14.85165 | 99.39891 | 30226 ft | 450 kts | 296° |
| 2026-05-04 07:10 | 14.86815 | 99.37128 | 30461 ft | 453 kts | 304° |
| 2026-05-04 07:10 | 14.88772 | 99.34604 | 30684 ft | 455 kts | 307° |
| 2026-05-04 07:12 | 15.02574 | 99.17142 | 31890 ft | 429 kts | 307° |
| 2026-05-04 07:12 | 15.06334 | 99.12357 | 31901 ft | 427 kts | 307° |
| 2026-05-04 07:13 | 15.10074 | 99.07583 | 31909 ft | 426 kts | 307° |
| 2026-05-04 07:13 | 15.13804 | 99.02836 | 31909 ft | 427 kts | 307° |
| 2026-05-04 07:14 | 15.23156 | 98.90937 | 31917 ft | 426 kts | 307° |
| 2026-05-04 07:15 | 15.26904 | 98.86161 | 31918 ft | 426 kts | 307° |
| 2026-05-04 07:15 | 15.30626 | 98.81419 | 31919 ft | 426 kts | 307° |
| 2026-05-04 07:16 | 15.34367 | 98.76647 | 31907 ft | 426 kts | 307° |
| 2026-05-04 07:16 | 15.38101 | 98.71873 | 31903 ft | 426 kts | 306° |
| 2026-05-04 07:17 | 15.41809 | 98.67132 | 31905 ft | 426 kts | 306° |
| 2026-05-04 07:17 | 15.45545 | 98.62360 | 31892 ft | 426 kts | 306° |
| 2026-05-04 07:18 | 15.49046 | 98.57423 | 31898 ft | 423 kts | 298° |
| 2026-05-04 07:18 | 15.52034 | 98.52167 | 31893 ft | 423 kts | 298° |
| 2026-05-04 07:19 | 15.55022 | 98.46934 | 31884 ft | 422 kts | 298° |
| 2026-05-04 07:19 | 15.58003 | 98.41722 | 31884 ft | 422 kts | 298° |
| 2026-05-04 07:20 | 15.60999 | 98.36484 | 31878 ft | 422 kts | 298° |
| 2026-05-04 07:20 | 15.63993 | 98.31229 | 31874 ft | 422 kts | 298° |
| 2026-05-04 07:22 | 15.75924 | 98.10273 | 31870 ft | 421 kts | 298° |
| 2026-05-04 07:23 | 15.78898 | 98.05027 | 31860 ft | 421 kts | 298° |
| 2026-05-04 07:23 | 15.81854 | 97.99808 | 31867 ft | 421 kts | 298° |
| 2026-05-04 07:24 | 15.84833 | 97.94555 | 31875 ft | 421 kts | 298° |
| 2026-05-04 07:24 | 15.87308 | 97.90191 | 31862 ft | 422 kts | 298° |
| 2026-05-04 07:26 | 15.99238 | 97.69142 | 31862 ft | 423 kts | 298° |
| 2026-05-04 07:27 | 16.02207 | 97.63885 | 31865 ft | 423 kts | 298° |
| 2026-05-04 07:27 | 16.05181 | 97.58612 | 31875 ft | 423 kts | 298° |
| 2026-05-04 07:28 | 16.08163 | 97.53320 | 31794 ft | 422 kts | 298° |
| 2026-05-04 07:28 | 16.09632 | 97.50715 | 31556 ft | 413 kts | 298° |
| 2026-05-04 07:28 | 16.11070 | 97.48165 | 31322 ft | 408 kts | 298° |
| 2026-05-04 07:29 | 16.12499 | 97.45631 | 31043 ft | 403 kts | 298° |
| 2026-05-04 07:29 | 16.13898 | 97.43150 | 30587 ft | 401 kts | 298° |
| 2026-05-04 07:29 | 16.15306 | 97.40647 | 30123 ft | 399 kts | 298° |
| 2026-05-04 07:29 | 16.16705 | 97.38159 | 29620 ft | 396 kts | 298° |
| 2026-05-04 07:30 | 16.18094 | 97.35691 | 29170 ft | 392 kts | 298° |
| 2026-05-04 07:30 | 16.19448 | 97.33287 | 28736 ft | 388 kts | 298° |
| 2026-05-04 07:30 | 16.20805 | 97.30873 | 28313 ft | 383 kts | 298° |
| 2026-05-04 07:30 | 16.22147 | 97.28484 | 27894 ft | 379 kts | 298° |
| 2026-05-04 07:31 | 16.23475 | 97.26122 | 27472 ft | 375 kts | 298° |
| 2026-05-04 07:31 | 16.24771 | 97.23814 | 27058 ft | 372 kts | 298° |
| 2026-05-04 07:33 | 16.33697 | 97.07901 | 24040 ft | 359 kts | 298° |
| 2026-05-04 07:33 | 16.34954 | 97.05656 | 23702 ft | 354 kts | 298° |
| 2026-05-04 07:33 | 16.36195 | 97.03488 | 23591 ft | 343 kts | 302° |
| 2026-05-04 07:33 | 16.37738 | 97.01624 | 23404 ft | 338 kts | 315° |
| 2026-05-04 07:34 | 16.39656 | 97.00205 | 22951 ft | 341 kts | 330° |
| 2026-05-04 07:34 | 16.41780 | 96.99124 | 22555 ft | 339 kts | 330° |
| 2026-05-04 07:34 | 16.43866 | 96.98055 | 22199 ft | 336 kts | 330° |
| 2026-05-04 07:34 | 16.45948 | 96.96978 | 21722 ft | 331 kts | 330° |
| 2026-05-04 07:35 | 16.48010 | 96.95905 | 21124 ft | 328 kts | 330° |
| 2026-05-04 07:35 | 16.50038 | 96.94849 | 20678 ft | 323 kts | 330° |
| 2026-05-04 07:35 | 16.52041 | 96.93803 | 20240 ft | 320 kts | 330° |
| 2026-05-04 07:35 | 16.54003 | 96.92779 | 19809 ft | 317 kts | 330° |
| 2026-05-04 07:36 | 16.55974 | 96.91752 | 19388 ft | 315 kts | 330° |
| 2026-05-04 07:36 | 16.57949 | 96.90722 | 18962 ft | 318 kts | 330° |
| 2026-05-04 07:38 | 16.71493 | 96.83675 | 16136 ft | 304 kts | 330° |
| 2026-05-04 07:38 | 16.73378 | 96.82689 | 15611 ft | 301 kts | 330° |
| 2026-05-04 07:38 | 16.75244 | 96.81716 | 15160 ft | 297 kts | 330° |
| 2026-05-04 07:38 | 16.77065 | 96.80767 | 14776 ft | 294 kts | 330° |
| 2026-05-04 07:39 | 16.78900 | 96.79810 | 14562 ft | 294 kts | 330° |
| 2026-05-04 07:39 | 16.80732 | 96.78851 | 14326 ft | 294 kts | 330° |
| 2026-05-04 07:39 | 16.82545 | 96.77904 | 14091 ft | 293 kts | 330° |
| 2026-05-04 07:39 | 16.84369 | 96.76948 | 13854 ft | 292 kts | 330° |
| 2026-05-04 07:40 | 16.86165 | 96.76005 | 13616 ft | 291 kts | 330° |
| 2026-05-04 07:40 | 16.87976 | 96.75051 | 13366 ft | 290 kts | 331° |
| 2026-05-04 07:40 | 16.89784 | 96.74099 | 13134 ft | 289 kts | 331° |
| 2026-05-04 07:40 | 16.91556 | 96.73168 | 12898 ft | 288 kts | 331° |
| 2026-05-04 07:41 | 16.93351 | 96.72227 | 12667 ft | 287 kts | 331° |
| 2026-05-04 07:41 | 16.95136 | 96.71293 | 12422 ft | 286 kts | 331° |
| 2026-05-04 07:41 | 16.96912 | 96.70363 | 12203 ft | 285 kts | 331° |
| 2026-05-04 07:41 | 16.98687 | 96.69431 | 11975 ft | 284 kts | 331° |
| 2026-05-04 07:42 | 17.00455 | 96.68504 | 11746 ft | 284 kts | 332° |
| 2026-05-04 07:42 | 17.02192 | 96.67592 | 11519 ft | 283 kts | 332° |
| 2026-05-04 07:42 | 17.03951 | 96.66665 | 11292 ft | 282 kts | 332° |
| 2026-05-04 07:42 | 17.05709 | 96.65742 | 11065 ft | 281 kts | 332° |
| 2026-05-04 07:43 | 17.07454 | 96.64828 | 10834 ft | 280 kts | 332° |
| 2026-05-04 07:43 | 17.09191 | 96.63917 | 10610 ft | 279 kts | 332° |
| 2026-05-04 07:43 | 17.10875 | 96.62908 | 10122 ft | 281 kts | 319° |
| 2026-05-04 07:43 | 17.12080 | 96.61362 | 9624 ft | 276 kts | 295° |
| 2026-05-04 07:44 | 17.12596 | 96.59455 | 9085 ft | 271 kts | 271° |
| 2026-05-04 07:44 | 17.12353 | 96.57534 | 8644 ft | 263 kts | 252° |
| 2026-05-04 07:44 | 17.11822 | 96.55726 | 8288 ft | 257 kts | 252° |
| 2026-05-04 07:44 | 17.11306 | 96.53955 | 7941 ft | 258 kts | 252° |
| 2026-05-04 07:45 | 17.10786 | 96.52156 | 7597 ft | 259 kts | 253° |
| 2026-05-04 07:45 | 17.10262 | 96.50344 | 7229 ft | 260 kts | 253° |
| 2026-05-04 07:45 | 17.09736 | 96.48519 | 6856 ft | 262 kts | 253° |
| 2026-05-04 07:45 | 17.09212 | 96.46703 | 6528 ft | 260 kts | 253° |
| 2026-05-04 07:46 | 17.08696 | 96.44917 | 6109 ft | 253 kts | 253° |
| 2026-05-04 07:46 | 17.08196 | 96.43187 | 5769 ft | 242 kts | 253° |
| 2026-05-04 07:46 | 17.07715 | 96.41527 | 5494 ft | 241 kts | 253° |
| 2026-05-04 07:46 | 17.07229 | 96.39846 | 5140 ft | 243 kts | 253° |
| 2026-05-04 07:47 | 17.06737 | 96.38142 | 4785 ft | 245 kts | 253° |
| 2026-05-04 07:47 | 17.06250 | 96.36450 | 4406 ft | 247 kts | 253° |
| 2026-05-04 07:47 | 17.05755 | 96.34729 | 4037 ft | 248 kts | 253° |
| 2026-05-04 07:49 | 17.02481 | 96.23429 | 2386 ft | 205 kts | 253° |
| 2026-05-04 07:49 | 17.02070 | 96.22019 | 2301 ft | 198 kts | 250° |
| 2026-05-04 07:49 | 17.01456 | 96.20817 | 2096 ft | 186 kts | 229° |
| 2026-05-04 07:50 | 17.00493 | 96.19983 | 1876 ft | 175 kts | 213° |
| 2026-05-04 07:50 | 16.99509 | 96.19314 | 1674 ft | 160 kts | 213° |
| 2026-05-04 07:50 | 16.98610 | 96.18699 | 1461 ft | 149 kts | 213° |
| 2026-05-04 07:50 | 16.97748 | 96.18110 | 1274 ft | 146 kts | 212° |
| 2026-05-04 07:51 | 16.96912 | 96.17540 | 1102 ft | 145 kts | 212° |
| 2026-05-04 07:51 | 16.96067 | 96.16964 | 929 ft | 145 kts | 213° |
| 2026-05-04 07:51 | 16.95225 | 96.16390 | 752 ft | 145 kts | 212° |
| 2026-05-04 07:51 | 16.94391 | 96.15822 | 568 ft | 144 kts | 213° |
| 2026-05-04 07:52 | 16.93552 | 96.15249 | 358 ft | 145 kts | 212° |
| 2026-05-04 07:52 | 16.92714 | 96.14666 | 165 ft | 144 kts | 210° |
| 2026-05-04 07:52 | 16.91869 | 96.14108 | 52 ft | 134 kts | 212° |
| 2026-05-04 07:52 | 16.91240 | 96.13678 | 72 ft | 79 kts | 213° |
| 2026-05-04 07:53 | 16.90941 | 96.13476 | 88 ft | 40 kts | 214° |